Skip Navigation Links Skip Navigation Links

Current Weather

Bierset, Belgium

For information only: do not use for flight planning or navigation.
Latest weather
Observation time Monday, October 18, 2021 8:50 PM CEST
Local time Monday, October 18, 2021 9:26 PM CEST
Flight conditions Visual Meteorological Conditions
Winds
Wind direction South (190°)
Winds variable from 170° to 240°
Wind speed 13 mph
Visibility 6.2 mi.
Sky condition
Ceiling unlimited
Sky clear
Temperature 57°F
Dewpoint 48°F
Altimeter 30.15 in.Hg
Derived measurements
Relative humidity 72%
Density altitude -29 ft.
Remarks
Ceiling and visibility OK.
No significant changes expected in the next two hours.
METAR EBLG 181850Z 19011KT 170V240 CAVOK 14/09 Q1021 NOSIG

Settings

Location code

InnerDrive.Weather 4.0.6770.0 Release CLR 4.0.30319.42000
Copyright ©2018 Inner Drive Technology. All rights reserved. Portions Copyright ©1986-2018 David Braverman.

Find weather

Site navigation


Skip Navigation Links

Place info

Page info

PayPal - The safer, easier way to pay online!

Return home.

Copyright ©2021 Inner Drive Technology. Purveyors of fine, hand-crafted computer software. Page printed 2021-10-18T19:26:16 UTC.